Time;durP1;ratioP1;P1;durP2;ratioP2;P2;SDS_P1;SDS_P2;PMS_P1;PMS_P2;Temp;Humidity;BMP_temperature;BMP_pressure;BME280_temperature;BME280_humidity;BME280_pressure;Samples;Min_cycle;Max_cycle;Signal;HPM_P1;HPM_P2
2023/02/26 00:01:11;;;;;;;;;2.75;2.00;;;;;-147.17;100.00;-15917.19;5026816;28;51148;-50
2023/02/26 00:03:36;;;;;;;;;8.50;7.00;;;;;-147.17;100.00;-15917.19;5028584;28;51160;-50
2023/02/26 00:06:01;;;;;;;;;6.00;3.00;;;;;-147.17;100.00;-15917.19;5019394;28;51465;-50
2023/02/26 00:08:27;;;;;;;;;4.50;4.50;;;;;-147.17;100.00;-15917.19;5030081;28;51066;-51
2023/02/26 00:10:53;;;;;;;;;5.00;5.00;;;;;-147.17;100.00;-15917.19;5026461;28;51464;-48
2023/02/26 00:13:19;;;;;;;;;6.00;5.00;;;;;-147.17;100.00;-15917.19;5029934;28;51227;-51
2023/02/26 00:15:47;;;;;;;;;3.00;3.00;;;;;-147.17;100.00;-15917.19;5019145;28;51176;-48
2023/02/26 00:18:14;;;;;;;;;7.50;6.50;;;;;-147.17;100.00;-15917.19;5021067;28;52436;-50
2023/02/26 00:20:42;;;;;;;;;11.00;9.00;;;;;-147.17;100.00;-15917.19;5015783;28;51093;-48
2023/02/26 00:23:13;;;;;;;;;5.75;5.50;;;;;-147.17;100.00;-15917.19;5022357;28;51239;-49
2023/02/26 00:25:38;;;;;;;;;6.00;6.00;;;;;-147.17;100.00;-15917.19;5014223;28;50940;-52
2023/02/26 00:28:04;;;;;;;;;7.50;6.50;;;;;-147.17;100.00;-15917.19;5023111;28;52379;-50
2023/02/26 00:30:29;;;;;;;;;6.75;6.00;;;;;-147.17;100.00;-15917.19;5008735;28;50955;-50
2023/02/26 00:32:55;;;;;;;;;5.50;4.00;;;;;-147.17;100.00;-15917.19;5021785;28;51181;-50
2023/02/26 00:35:21;;;;;;;;;5.00;5.00;;;;;-147.17;100.00;-15917.19;5005959;28;51437;-51
2023/02/26 00:38:01;;;;;;;;;5.50;5.00;;;;;-147.17;100.00;-15917.19;5015080;28;52225;-50
2023/02/26 00:40:29;;;;;;;;;6.75;5.50;;;;;-147.17;100.00;-15917.19;5031627;28;51203;-49
2023/02/26 00:42:55;;;;;;;;;6.25;5.75;;;;;-147.17;100.00;-15917.19;5021033;28;51457;-49
2023/02/26 00:45:21;;;;;;;;;9.25;6.50;;;;;-147.17;100.00;-15917.19;5029124;28;51233;-49
2023/02/26 00:48:14;;;;;;;;;5.50;5.50;;;;;-147.17;100.00;-15917.19;5016604;28;51146;-49
2023/02/26 00:50:53;;;;;;;;;9.00;5.00;;;;;-147.17;100.00;-15917.19;5026832;28;52835;-49
2023/02/26 00:53:43;;;;;;;;;10.50;5.75;;;;;-147.17;100.00;-15917.19;5017234;28;50971;-48
2023/02/26 00:56:08;;;;;;;;;5.75;5.00;;;;;-147.17;100.00;-15917.19;5012073;28;51060;-50
2023/02/26 00:58:34;;;;;;;;;5.00;4.50;;;;;-147.17;100.00;-15917.19;5016701;28;52821;-49
2023/02/26 01:01:00;;;;;;;;;5.25;4.00;;;;;-147.17;100.00;-15917.19;5016927;28;51221;-50
2023/02/26 01:03:25;;;;;;;;;9.00;7.00;;;;;-147.17;100.00;-15917.19;5021148;28;51132;-49
2023/02/26 01:05:51;;;;;;;;;9.50;9.50;;;;;-147.17;100.00;-15917.19;5027223;28;51650;-50
2023/02/26 01:08:30;;;;;;;;;9.00;7.00;;;;;-147.17;100.00;-15917.19;5023529;28;51704;-48
2023/02/26 01:10:56;;;;;;;;;6.00;5.00;;;;;-147.17;100.00;-15917.19;5022519;28;51183;-49
2023/02/26 01:13:21;;;;;;;;;4.50;4.50;;;;;-147.17;100.00;-15917.19;4995401;28;51285;-49
2023/02/26 01:15:51;;;;;;;;;3.25;2.00;;;;;-147.17;100.00;-15917.19;5032425;28;51394;-50
2023/02/26 01:18:22;;;;;;;;;3.25;3.25;;;;;-147.17;100.00;-15917.19;5029323;28;50998;-48
2023/02/26 01:21:14;;;;;;;;;5.00;5.00;;;;;-147.17;100.00;-15917.19;5006572;28;51107;-49
2023/02/26 01:23:46;;;;;;;;;5.00;5.00;;;;;-147.17;100.00;-15917.19;5009232;28;51391;-49
2023/02/26 01:26:21;;;;;;;;;5.75;5.75;;;;;-147.17;100.00;-15917.19;5022664;28;51047;-50
2023/02/26 01:28:46;;;;;;;;;5.00;4.50;;;;;-147.17;100.00;-15917.19;5022644;28;51160;-50
2023/02/26 01:31:58;;;;;;;;;5.00;5.00;;;;;-147.17;100.00;-15917.19;5016238;28;51319;-50
2023/02/26 01:34:51;;;;;;;;;6.00;5.00;;;;;-147.17;100.00;-15917.19;4962872;28;51794;-49
2023/02/26 01:37:34;;;;;;;;;5.00;5.00;;;;;-147.17;100.00;-15917.19;5016824;28;51148;-50
2023/02/26 01:40:33;;;;;;;;;5.25;5.00;;;;;-147.17;100.00;-15917.19;5021384;28;51278;-51
2023/02/26 01:43:09;;;;;;;;;7.00;5.50;;;;;-147.17;100.00;-15917.19;5019282;28;51089;-50
2023/02/26 01:46:09;;;;;;;;;5.50;5.00;;;;;-147.17;100.00;-15917.19;5029448;28;51042;-50
2023/02/26 01:48:48;;;;;;;;;6.00;5.00;;;;;-147.17;100.00;-15917.19;4964466;28;51186;-49
2023/02/26 01:51:15;;;;;;;;;10.00;9.00;;;;;-147.17;100.00;-15917.19;5018328;28;52118;-49
2023/02/26 01:53:40;;;;;;;;;7.25;6.00;;;;;-147.17;100.00;-15917.19;5022117;28;51089;-50
2023/02/26 01:56:17;;;;;;;;;3.75;3.75;;;;;-147.17;100.00;-15917.19;5012661;28;51050;-49
2023/02/26 01:58:44;;;;;;;;;5.00;5.00;;;;;-147.17;100.00;-15917.19;5019583;28;50862;-52
2023/02/26 02:01:10;;;;;;;;;8.00;6.00;;;;;-147.17;100.00;-15917.19;5024380;28;54137;-52
2023/02/26 02:03:41;;;;;;;;;4.25;4.25;;;;;-147.17;100.00;-15917.19;5026397;28;51051;-48
2023/02/26 02:06:14;;;;;;;;;7.00;6.00;;;;;-147.17;100.00;-15917.19;5025319;28;50963;-49
2023/02/26 02:08:39;;;;;;;;;4.75;4.75;;;;;-147.17;100.00;-15917.19;4998906;28;51238;-49
2023/02/26 02:11:08;;;;;;;;;6.00;4.50;;;;;-147.17;100.00;-15917.19;5021731;28;51148;-48
2023/02/26 02:13:49;;;;;;;;;5.75;4.50;;;;;-147.17;100.00;-15917.19;5019731;28;51104;-48
2023/02/26 02:16:36;;;;;;;;;4.50;4.50;;;;;-147.17;100.00;-15917.19;5032570;28;50971;-48
2023/02/26 02:19:35;;;;;;;;;6.50;5.00;;;;;-147.17;100.00;-15917.19;5026517;28;50888;-48
2023/02/26 02:22:20;;;;;;;;;4.50;2.00;;;;;-147.17;100.00;-15917.19;5027234;28;51435;-51
2023/02/26 02:24:58;;;;;;;;;6.25;5.50;;;;;-147.17;100.00;-15917.19;4998884;28;51257;-50
2023/02/26 02:27:23;;;;;;;;;3.50;2.00;;;;;-147.17;100.00;-15917.19;5012784;28;50917;-51
2023/02/26 02:30:02;;;;;;;;;4.00;4.00;;;;;-147.17;100.00;-15917.19;5009134;28;51323;-49
2023/02/26 02:32:34;;;;;;;;;5.00;4.25;;;;;-147.17;100.00;-15917.19;5028055;28;52625;-48
2023/02/26 02:35:11;;;;;;;;;5.00;5.00;;;;;-147.17;100.00;-15917.19;4999110;28;51229;-50
2023/02/26 02:37:42;;;;;;;;;5.25;5.00;;;;;-147.17;100.00;-15917.19;5019382;28;51053;-51
2023/02/26 02:40:28;;;;;;;;;5.00;4.50;;;;;-147.17;100.00;-15917.19;5014775;28;53410;-50
2023/02/26 02:43:03;;;;;;;;;4.00;4.00;;;;;-147.17;100.00;-15917.19;5014167;28;52101;-50
2023/02/26 02:45:49;;;;;;;;;5.00;3.50;;;;;-147.17;100.00;-15917.19;5028808;28;51066;-51
2023/02/26 02:48:30;;;;;;;;;2.50;2.50;;;;;-147.17;100.00;-15917.19;5021003;28;52909;-52
2023/02/26 02:51:03;;;;;;;;;2.50;2.00;;;;;-147.17;100.00;-15917.19;5020251;28;51149;-50
2023/02/26 02:53:53;;;;;;;;;3.00;2.00;;;;;-147.17;100.00;-15917.19;5023943;28;53230;-50
2023/02/26 02:56:24;;;;;;;;;5.00;5.00;;;;;-147.17;100.00;-15917.19;5018453;28;51066;-50
2023/02/26 02:59:05;;;;;;;;;6.00;5.25;;;;;-147.17;100.00;-15917.19;5015717;28;51187;-50
2023/02/26 03:01:34;;;;;;;;;7.25;5.75;;;;;-147.17;100.00;-15917.19;5002660;28;51204;-48
2023/02/26 03:04:13;;;;;;;;;4.25;4.00;;;;;-147.17;100.00;-15917.19;5006588;28;51305;-49
2023/02/26 03:06:39;;;;;;;;;4.00;4.00;;;;;-147.17;100.00;-15917.19;5009307;28;51063;-53
2023/02/26 03:09:07;;;;;;;;;2.00;2.00;;;;;-147.17;100.00;-15917.19;5016369;28;51094;-49
2023/02/26 03:11:33;;;;;;;;;4.50;4.00;;;;;-147.17;100.00;-15917.19;5023142;28;51385;-53
2023/02/26 03:13:59;;;;;;;;;4.50;4.50;;;;;-147.17;100.00;-15917.19;5031712;28;51733;-51
2023/02/26 03:16:44;;;;;;;;;5.00;4.00;;;;;-147.17;100.00;-15917.19;5031131;28;51058;-48
2023/02/26 03:19:57;;;;;;;;;5.00;4.00;;;;;-147.17;100.00;-15917.19;5029805;28;50954;-50
2023/02/26 03:22:42;;;;;;;;;3.00;2.00;;;;;-147.17;100.00;-15917.19;5012125;28;51203;-50
2023/02/26 03:25:13;;;;;;;;;4.00;3.00;;;;;-147.17;100.00;-15917.19;5009479;28;51725;-49
2023/02/26 03:27:57;;;;;;;;;3.00;2.00;;;;;-147.17;100.00;-15917.19;5007450;28;51142;-50
2023/02/26 03:30:50;;;;;;;;;4.00;4.00;;;;;-147.17;100.00;-15917.19;5015479;28;51016;-51
2023/02/26 03:33:41;;;;;;;;;4.00;4.00;;;;;-147.17;100.00;-15917.19;5009068;28;51146;-50
2023/02/26 03:36:22;;;;;;;;;4.75;4.00;;;;;-147.17;100.00;-15917.19;4989074;28;51857;-52
2023/02/26 03:38:57;;;;;;;;;1.25;1.25;;;;;-147.17;100.00;-15917.19;5024264;28;51034;-51
2023/02/26 03:41:32;;;;;;;;;3.50;3.50;;;;;-147.17;100.00;-15917.19;5024141;28;51357;-49
2023/02/26 03:44:18;;;;;;;;;4.50;3.50;;;;;-147.17;100.00;-15917.19;5015065;28;51115;-50
2023/02/26 03:46:51;;;;;;;;;3.50;2.00;;;;;-147.17;100.00;-15917.19;5030369;28;52700;-48
2023/02/26 03:49:43;;;;;;;;;2.00;2.00;;;;;-147.17;100.00;-15917.19;5014734;28;51185;-50
2023/02/26 03:52:10;;;;;;;;;1.50;1.00;;;;;-147.17;100.00;-15917.19;5022975;28;51095;-50
2023/02/26 03:54:45;;;;;;;;;2.50;2.50;;;;;-147.17;100.00;-15917.19;5022045;28;51083;-50
2023/02/26 03:57:11;;;;;;;;;4.75;2.50;;;;;-147.17;100.00;-15917.19;5024467;28;51713;-51
2023/02/26 03:59:36;;;;;;;;;4.50;2.00;;;;;-147.17;100.00;-15917.19;5028146;28;51016;-51
2023/02/26 04:02:25;;;;;;;;;5.00;2.00;;;;;-147.17;100.00;-15917.19;5027104;28;51051;-50
2023/02/26 04:04:55;;;;;;;;;3.50;3.50;;;;;-147.17;100.00;-15917.19;5030179;28;51169;-50
2023/02/26 04:07:21;;;;;;;;;4.50;3.50;;;;;-147.17;100.00;-15917.19;5033757;28;51864;-50
2023/02/26 04:09:50;;;;;;;;;4.25;4.00;;;;;-147.17;100.00;-15917.19;5029416;28;50959;-49
2023/02/26 04:12:21;;;;;;;;;3.75;3.75;;;;;-147.17;100.00;-15917.19;5012217;28;51395;-48
2023/02/26 04:14:47;;;;;;;;;2.00;2.00;;;;;-147.17;100.00;-15917.19;5009611;28;51274;-49
2023/02/26 04:17:12;;;;;;;;;2.00;2.00;;;;;-147.17;100.00;-15917.19;5031427;28;51636;-49
2023/02/26 04:19:37;;;;;;;;;5.25;4.75;;;;;-147.17;100.00;-15917.19;5015597;28;51201;-50
2023/02/26 04:22:03;;;;;;;;;5.00;4.00;;;;;-147.17;100.00;-15917.19;5032268;28;51312;-48
2023/02/26 04:24:28;;;;;;;;;4.00;4.00;;;;;-147.17;100.00;-15917.19;5031835;28;50985;-49
2023/02/26 04:26:54;;;;;;;;;3.00;2.00;;;;;-147.17;100.00;-15917.19;5027524;28;52596;-48
2023/02/26 04:29:19;;;;;;;;;2.00;2.00;;;;;-147.17;100.00;-15917.19;5030118;28;51039;-49
2023/02/26 04:31:44;;;;;;;;;4.25;4.00;;;;;-147.17;100.00;-15917.19;5014825;28;51299;-48
2023/02/26 04:34:10;;;;;;;;;3.50;3.50;;;;;-147.17;100.00;-15917.19;5014493;28;51018;-50
2023/02/26 04:36:36;;;;;;;;;1.75;1.75;;;;;-147.17;100.00;-15917.19;5024411;28;51996;-48
2023/02/26 04:39:01;;;;;;;;;4.25;4.00;;;;;-147.17;100.00;-15917.19;5013776;28;51128;-47
2023/02/26 04:41:26;;;;;;;;;6.00;5.25;;;;;-147.17;100.00;-15917.19;5011512;28;51126;-48
2023/02/26 04:43:52;;;;;;;;;5.25;5.00;;;;;-147.17;100.00;-15917.19;5013502;28;50946;-49
2023/02/26 04:46:17;;;;;;;;;5.00;4.50;;;;;-147.17;100.00;-15917.19;5032350;28;52510;-51
2023/02/26 04:48:43;;;;;;;;;4.00;2.00;;;;;-147.17;100.00;-15917.19;5025373;28;51023;-50
2023/02/26 04:51:08;;;;;;;;;5.00;5.00;;;;;-147.17;100.00;-15917.19;5016649;28;51172;-51
2023/02/26 04:53:33;;;;;;;;;6.00;5.00;;;;;-147.17;100.00;-15917.19;5014263;28;51161;-48
2023/02/26 04:55:59;;;;;;;;;6.50;4.00;;;;;-147.17;100.00;-15917.19;5012869;28;51759;-50
2023/02/26 04:58:24;;;;;;;;;4.00;4.00;;;;;-147.17;100.00;-15917.19;5013604;28;51070;-51
2023/02/26 05:00:51;;;;;;;;;3.50;3.00;;;;;-147.17;100.00;-15917.19;5025228;28;51656;-50
2023/02/26 05:03:17;;;;;;;;;6.00;6.00;;;;;-147.17;100.00;-15917.19;5004501;28;51328;-49
2023/02/26 05:05:42;;;;;;;;;7.50;5.25;;;;;-147.17;100.00;-15917.19;5020187;28;51844;-49
2023/02/26 05:08:08;;;;;;;;;5.25;5.25;;;;;-147.17;100.00;-15917.19;5019016;28;51101;-48
2023/02/26 05:10:33;;;;;;;;;2.00;1.50;;;;;-147.17;100.00;-15917.19;4996942;28;51253;-51
2023/02/26 05:12:58;;;;;;;;;6.00;4.00;;;;;-147.17;100.00;-15917.19;5016325;28;51177;-50
2023/02/26 05:15:25;;;;;;;;;4.00;4.00;;;;;-147.17;100.00;-15917.19;5030421;28;51114;-51
2023/02/26 05:17:50;;;;;;;;;2.00;2.00;;;;;-147.17;100.00;-15917.19;5019814;28;51113;-50
2023/02/26 05:20:16;;;;;;;;;8.00;8.00;;;;;-147.17;100.00;-15917.19;5020378;28;51168;-49
2023/02/26 05:22:41;;;;;;;;;4.00;3.00;;;;;-147.17;100.00;-15917.19;5026455;28;51180;-49
2023/02/26 05:25:09;;;;;;;;;4.75;4.00;;;;;-147.17;100.00;-15917.19;5014810;28;51212;-50
2023/02/26 05:27:34;;;;;;;;;1.25;1.25;;;;;-147.17;100.00;-15917.19;5026337;28;51158;-51
2023/02/26 05:30:00;;;;;;;;;2.50;2.50;;;;;-147.17;100.00;-15917.19;5014395;28;51476;-50
2023/02/26 05:32:26;;;;;;;;;5.00;4.50;;;;;-147.17;100.00;-15917.19;5029157;28;51162;-51
2023/02/26 05:34:51;;;;;;;;;3.00;3.00;;;;;-147.17;100.00;-15917.19;5021438;28;52286;-49
2023/02/26 05:37:16;;;;;;;;;4.25;2.50;;;;;-147.17;100.00;-15917.19;5010552;28;50928;-49
2023/02/26 05:39:42;;;;;;;;;4.25;3.75;;;;;-147.17;100.00;-15917.19;5013090;28;51142;-48
2023/02/26 05:42:08;;;;;;;;;6.25;5.00;;;;;-147.17;100.00;-15917.19;5014025;28;51554;-50
2023/02/26 05:44:34;;;;;;;;;6.25;5.00;;;;;-147.17;100.00;-15917.19;5015507;28;51758;-49
2023/02/26 05:47:00;;;;;;;;;4.00;4.00;;;;;-147.17;100.00;-15917.19;5026202;28;51141;-50
2023/02/26 05:49:26;;;;;;;;;2.00;1.00;;;;;-147.17;100.00;-15917.19;5007081;28;51122;-48
2023/02/26 05:51:51;;;;;;;;;2.00;2.00;;;;;-147.17;100.00;-15917.19;5020731;28;51311;-51
2023/02/26 05:54:16;;;;;;;;;6.75;5.75;;;;;-147.17;100.00;-15917.19;5026436;28;51317;-50
2023/02/26 05:56:42;;;;;;;;;4.00;4.00;;;;;-147.17;100.00;-15917.19;5028102;28;50937;-49
2023/02/26 05:59:07;;;;;;;;;4.00;4.00;;;;;-147.17;100.00;-15917.19;5022679;28;51185;-49
2023/02/26 06:01:33;;;;;;;;;4.00;4.00;;;;;-147.17;100.00;-15917.19;5021966;28;51430;-47
2023/02/26 06:03:58;;;;;;;;;4.50;4.50;;;;;-147.17;100.00;-15917.19;5025511;28;51177;-48
2023/02/26 06:06:25;;;;;;;;;5.75;5.50;;;;;-147.17;100.00;-15917.19;5017110;28;51346;-49
2023/02/26 06:08:51;;;;;;;;;5.50;5.50;;;;;-147.17;100.00;-15917.19;5022712;28;51153;-50
2023/02/26 06:11:16;;;;;;;;;5.00;4.50;;;;;-147.17;100.00;-15917.19;5019562;28;51240;-50
2023/02/26 06:13:42;;;;;;;;;9.75;5.00;;;;;-147.17;100.00;-15917.19;5011214;28;52528;-48
2023/02/26 06:16:07;;;;;;;;;5.00;5.00;;;;;-147.17;100.00;-15917.19;5014432;28;51004;-49
2023/02/26 06:18:32;;;;;;;;;2.00;2.00;;;;;-147.17;100.00;-15917.19;5010323;28;51211;-48
2023/02/26 06:20:59;;;;;;;;;4.25;4.00;;;;;-147.17;100.00;-15917.19;5031813;28;51273;-51
2023/02/26 06:23:24;;;;;;;;;8.75;4.50;;;;;-147.17;100.00;-15917.19;5022828;28;51723;-51
2023/02/26 06:25:51;;;;;;;;;8.00;5.75;;;;;-147.17;100.00;-15917.19;5022799;28;52762;-50
2023/02/26 06:28:17;;;;;;;;;5.00;4.50;;;;;-147.17;100.00;-15917.19;5025584;28;51796;-50
2023/02/26 06:30:43;;;;;;;;;5.00;4.75;;;;;-147.17;100.00;-15917.19;5016499;28;51335;-48
2023/02/26 06:33:08;;;;;;;;;5.00;5.00;;;;;-147.17;100.00;-15917.19;5025034;28;52647;-50
2023/02/26 06:35:33;;;;;;;;;4.00;2.00;;;;;-147.17;100.00;-15917.19;5024203;28;51246;-50
2023/02/26 06:37:59;;;;;;;;;4.50;4.50;;;;;-147.17;100.00;-15917.19;5032399;28;51313;-51
2023/02/26 06:40:24;;;;;;;;;7.00;6.00;;;;;-147.17;100.00;-15917.19;5017362;28;51229;-50
2023/02/26 06:42:49;;;;;;;;;6.25;5.00;;;;;-147.17;100.00;-15917.19;5013429;28;52296;-48
2023/02/26 06:45:15;;;;;;;;;6.75;5.00;;;;;-147.17;100.00;-15917.19;5019669;28;51244;-50
2023/02/26 06:47:41;;;;;;;;;6.25;5.00;;;;;-147.17;100.00;-15917.19;5012537;28;51130;-51
2023/02/26 06:50:07;;;;;;;;;5.00;4.00;;;;;-147.17;100.00;-15917.19;5018160;28;51088;-50
2023/02/26 06:52:33;;;;;;;;;6.00;6.00;;;;;-147.17;100.00;-15917.19;5022368;28;52490;-50
2023/02/26 06:54:58;;;;;;;;;5.75;5.75;;;;;-147.17;100.00;-15917.19;5017822;28;51207;-50
2023/02/26 06:57:24;;;;;;;;;7.00;6.75;;;;;-147.17;100.00;-15917.19;4996573;28;51156;-50
2023/02/26 06:59:50;;;;;;;;;8.50;7.75;;;;;-147.17;100.00;-15917.19;5021465;28;51364;-51
2023/02/26 07:02:17;;;;;;;;;8.75;8.25;;;;;-147.17;100.00;-15917.19;5016764;28;50966;-49
2023/02/26 07:04:43;;;;;;;;;8.00;5.50;;;;;-147.17;100.00;-15917.19;5017723;28;51276;-50
2023/02/26 07:07:08;;;;;;;;;7.50;6.00;;;;;-147.17;100.00;-15917.19;5024383;28;51293;-47
2023/02/26 07:09:34;;;;;;;;;8.25;8.00;;;;;-147.17;100.00;-15917.19;5021377;28;51268;-49
2023/02/26 07:11:59;;;;;;;;;5.75;5.50;;;;;-147.17;100.00;-15917.19;5019132;28;52056;-49
2023/02/26 07:14:25;;;;;;;;;6.00;6.00;;;;;-147.17;100.00;-15917.19;5017918;28;51030;-51
2023/02/26 07:16:50;;;;;;;;;6.00;5.00;;;;;-147.17;100.00;-15917.19;5027193;28;51370;-49
2023/02/26 07:19:15;;;;;;;;;6.50;6.50;;;;;-147.17;100.00;-15917.19;5020010;28;51277;-50
2023/02/26 07:21:40;;;;;;;;;6.00;5.00;;;;;-147.17;100.00;-15917.19;5030160;28;51149;-49
2023/02/26 07:24:06;;;;;;;;;8.00;6.00;;;;;-147.17;100.00;-15917.19;5019946;28;52857;-47
2023/02/26 07:26:32;;;;;;;;;6.00;5.25;;;;;-147.17;100.00;-15917.19;5025088;28;51351;-49
2023/02/26 07:28:57;;;;;;;;;5.75;5.00;;;;;-147.17;100.00;-15917.19;5032592;28;51184;-51
2023/02/26 07:31:23;;;;;;;;;6.00;6.00;;;;;-147.17;100.00;-15917.19;5022306;28;51983;-50
2023/02/26 07:33:48;;;;;;;;;12.00;9.00;;;;;-147.17;100.00;-15917.19;5030442;28;51192;-49
2023/02/26 07:36:14;;;;;;;;;6.00;5.75;;;;;-147.17;100.00;-15917.19;5001984;28;51168;-49
2023/02/26 07:38:39;;;;;;;;;4.00;4.00;;;;;-147.17;100.00;-15917.19;5004247;28;51212;-50
2023/02/26 07:41:04;;;;;;;;;6.50;4.75;;;;;-147.17;100.00;-15917.19;5011440;28;53649;-51
2023/02/26 07:43:30;;;;;;;;;3.25;2.50;;;;;-147.17;100.00;-15917.19;5018391;28;51011;-50
2023/02/26 07:45:55;;;;;;;;;8.00;7.00;;;;;-147.17;100.00;-15917.19;5026723;28;51318;-49
2023/02/26 07:48:21;;;;;;;;;9.75;8.00;;;;;-147.17;100.00;-15917.19;5035019;28;51165;-48
2023/02/26 07:50:46;;;;;;;;;6.00;4.25;;;;;-147.17;100.00;-15917.19;5026683;28;51602;-51
2023/02/26 07:53:12;;;;;;;;;7.00;6.50;;;;;-147.17;100.00;-15917.19;5019508;28;51366;-51
2023/02/26 07:55:37;;;;;;;;;5.25;5.00;;;;;-147.17;100.00;-15917.19;5022498;28;51106;-50
2023/02/26 07:58:02;;;;;;;;;9.75;6.00;;;;;-147.17;100.00;-15917.19;5034167;28;50889;-48
2023/02/26 08:00:28;;;;;;;;;8.00;6.00;;;;;-147.17;100.00;-15917.19;5029345;28;51995;-49
2023/02/26 08:02:53;;;;;;;;;8.75;5.50;;;;;-147.17;100.00;-15917.19;5024932;28;51144;-49
2023/02/26 08:05:19;;;;;;;;;7.50;6.00;;;;;-147.17;100.00;-15917.19;5029399;28;51197;-51
2023/02/26 08:07:44;;;;;;;;;5.75;5.75;;;;;-147.17;100.00;-15917.19;5024884;28;51118;-50
2023/02/26 08:10:10;;;;;;;;;5.50;5.00;;;;;-147.17;100.00;-15917.19;5018244;28;52041;-52
2023/02/26 08:12:36;;;;;;;;;6.50;6.50;;;;;-147.17;100.00;-15917.19;5021364;28;51361;-48
2023/02/26 08:15:02;;;;;;;;;6.00;6.00;;;;;-147.17;100.00;-15917.19;5023377;28;51382;-52
2023/02/26 08:17:28;;;;;;;;;4.50;4.50;;;;;-147.17;100.00;-15917.19;5018091;28;51040;-49
2023/02/26 08:19:54;;;;;;;;;7.00;6.25;;;;;-147.17;100.00;-15917.19;5019266;28;51887;-49
2023/02/26 08:22:20;;;;;;;;;6.25;6.25;;;;;-147.17;100.00;-15917.19;5029056;28;50965;-48
2023/02/26 08:24:46;;;;;;;;;8.00;8.00;;;;;-147.17;100.00;-15420.25;5019813;28;51200;-50
2023/02/26 08:27:11;;;;;;;;;6.75;6.75;;;;;-147.17;100.00;-13933.50;5030940;28;51225;-49
2023/02/26 08:29:37;;;;;;;;;7.50;6.50;;;;;-147.17;100.00;-11206.22;5028392;28;51758;-52
2023/02/26 08:32:02;;;;;;;;;8.25;6.50;;;;;-147.17;100.00;-7980.59;5031911;28;51141;-51
2023/02/26 08:34:28;;;;;;;;;5.75;5.75;;;;;-147.17;100.00;-6490.94;5014647;28;50928;-51
2023/02/26 08:36:53;;;;;;;;;2.00;2.00;;;;;-147.17;100.00;-5249.09;5015825;28;51295;-51
2023/02/26 08:39:18;;;;;;;;;12.50;9.00;;;;;-147.17;100.00;-3261.34;5016583;28;51155;-49
2023/02/26 08:41:44;;;;;;;;;5.00;5.00;;;;;-147.17;100.00;966.09;5032853;28;51019;-49
2023/02/26 08:44:09;;;;;;;;;8.00;7.00;;;;;-147.17;100.00;3454.97;5032605;28;51591;-51
2023/02/26 08:46:34;;;;;;;;;7.50;7.50;;;;;-147.17;100.00;1214.91;5012581;28;51152;-49
2023/02/26 08:49:00;;;;;;;;;6.00;6.00;;;;;-147.17;100.00;-29.03;5027111;28;51135;-49
2023/02/26 08:51:25;;;;;;;;;5.25;5.25;;;;;-147.17;100.00;468.50;5025560;28;50996;-50
2023/02/26 08:53:50;;;;;;;;;6.25;5.00;;;;;-147.17;100.00;1961.44;5024559;28;51444;-50
2023/02/26 08:56:16;;;;;;;;;5.00;5.00;;;;;-147.17;100.00;4700.00;5027360;28;51100;-50
2023/02/26 08:58:43;;;;;;;;;6.00;5.25;;;;;-147.17;100.00;8686.84;5030783;28;51910;-50
2023/02/26 09:01:08;;;;;;;;;6.75;6.00;;;;;-147.17;100.00;12927.34;5030779;28;51034;-51
2023/02/26 09:03:34;;;;;;;;;7.00;6.75;;;;;-147.17;100.00;12677.78;5033203;28;51045;-52
2023/02/26 09:06:00;;;;;;;;;5.00;4.00;;;;;-147.17;100.00;20922.09;5023223;28;51331;-51
2023/02/26 09:08:25;;;;;;;;;6.00;5.50;;;;;-147.17;100.00;16423.03;5029666;28;51802;-50
2023/02/26 09:10:51;;;;;;;;;5.75;4.50;;;;;-147.17;100.00;17672.25;5027784;28;51904;-52
2023/02/26 09:13:16;;;;;;;;;5.75;5.25;;;;;-147.17;100.00;21172.19;5032452;28;50974;-51
2023/02/26 09:15:42;;;;;;;;;5.50;5.00;;;;;-147.17;100.00;29364.03;5022453;28;51724;-51
2023/02/26 09:18:14;;;;;;;;;4.25;4.25;;;;;-147.17;100.00;25430.28;5030694;28;52067;-51
2023/02/26 09:20:43;;;;;;;;;4.00;4.00;;;;;-147.17;100.00;25704.13;5024496;28;51074;-50
2023/02/26 09:23:09;;;;;;;;;3.50;3.00;;;;;-147.17;100.00;30503.81;5014215;28;51373;-51
2023/02/26 09:25:34;;;;;;;;;4.33;4.00;;;;;-147.17;100.00;31079.69;5022623;28;51420;-51
2023/02/26 09:28:00;;;;;;;;;5.75;5.25;;;;;-147.17;100.00;29775.25;5007839;28;52855;-51
2023/02/26 09:30:25;;;;;;;;;4.00;4.00;;;;;-147.17;100.00;34450.50;5013385;28;51116;-50
2023/02/26 09:32:51;;;;;;;;;4.33;3.00;;;;;-147.17;100.00;36278.22;5032743;28;51785;-49
2023/02/26 09:35:16;;;;;;;;;5.75;5.25;;;;;-147.17;100.00;37818.34;5008459;28;51082;-49
2023/02/26 09:37:41;;;;;;;;;5.00;5.00;;;;;-147.17;100.00;37367.03;5010466;28;53135;-51
2023/02/26 09:40:10;;;;;;;;;3.00;2.50;;;;;-147.17;100.00;36480.28;5023485;28;51184;-51
2023/02/26 09:42:44;;;;;;;;;1.00;1.00;;;;;-147.17;100.00;38464.00;5024701;28;51085;-51
2023/02/26 09:45:29;;;;;;;;;3.67;2.67;;;;;-147.17;100.00;40945.53;5028650;28;51180;-49
2023/02/26 09:47:55;;;;;;;;;4.00;3.00;;;;;-147.17;100.00;41263.69;5018652;28;51190;-51
2023/02/26 09:50:25;;;;;;;;;5.25;4.25;;;;;-147.17;100.00;41352.06;5019488;28;51279;-50
2023/02/26 09:52:53;;;;;;;;;3.25;3.25;;;;;-147.17;100.00;42096.53;5018451;28;51066;-51
2023/02/26 09:55:34;;;;;;;;;4.75;4.75;;;;;-147.17;100.00;42320.47;5022891;28;52276;-49
2023/02/26 09:58:02;;;;;;;;;3.00;3.00;;;;;-147.17;100.00;43059.22;5022601;28;51150;-49
2023/02/26 10:00:41;;;;;;;;;5.00;4.00;;;;;-147.17;100.00;42279.22;5027303;28;51191;-49
2023/02/26 10:03:28;;;;;;;;;4.50;4.50;;;;;-147.17;100.00;42328.34;5012579;28;51263;-48
2023/02/26 10:06:18;;;;;;;;;5.00;4.00;;;;;-147.17;100.00;41904.03;5018457;28;51177;-49
2023/02/26 10:08:49;;;;;;;;;5.25;5.00;;;;;-147.17;100.00;42161.34;5017345;28;51604;-49
2023/02/26 10:11:34;;;;;;;;;3.50;3.00;;;;;-147.17;100.00;41130.16;5026524;28;51262;-50
2023/02/26 10:14:25;;;;;;;;;6.25;3.75;;;;;-147.17;100.00;41597.59;5030581;28;51214;-48
2023/02/26 10:16:56;;;;;;;;;2.00;2.00;;;;;-147.17;100.00;42157.44;4981648;28;51486;-49
2023/02/26 10:19:29;;;;;;;;;2.25;2.25;;;;;-147.17;100.00;42298.88;5021569;28;53249;-49
2023/02/26 10:22:10;;;;;;;;;3.00;2.50;;;;;-147.17;100.00;41854.91;5024889;28;51293;-48
2023/02/26 10:24:43;;;;;;;;;2.75;2.00;;;;;-147.17;100.00;39948.00;5013123;28;50986;-48
2023/02/26 10:27:17;;;;;;;;;5.00;4.25;;;;;-147.17;100.00;41656.53;5025616;28;51208;-48
2023/02/26 10:30:01;;;;;;;;;3.50;3.50;;;;;-147.17;100.00;41244.06;5027673;28;51801;-51
2023/02/26 10:32:36;;;;;;;;;3.50;3.00;;;;;-147.17;100.00;40220.94;5018235;28;51069;-50
2023/02/26 10:35:11;;;;;;;;;3.50;2.50;;;;;-147.17;100.00;44248.19;4995710;28;51796;-50
2023/02/26 10:37:42;;;;;;;;;0.25;0.25;;;;;-147.17;100.00;44295.34;5030228;28;51231;-52
2023/02/26 10:40:15;;;;;;;;;3.00;2.25;;;;;-147.17;100.00;44116.50;5000991;28;54075;-51
2023/02/26 10:42:56;;;;;;;;;2.00;2.00;;;;;-147.17;100.00;45219.25;5026911;28;51133;-50
2023/02/26 10:45:58;;;;;;;;;1.75;1.75;;;;;-147.17;100.00;44920.44;5023863;28;51174;-51
2023/02/26 10:48:27;;;;;;;;;1.50;1.00;;;;;-147.17;100.00;44808.38;5027968;28;51158;-51
2023/02/26 10:50:56;;;;;;;;;1.50;1.25;;;;;-147.17;100.00;44922.41;5017598;28;52085;-51
2023/02/26 10:53:25;;;;;;;;;1.75;1.75;;;;;-147.17;100.00;44145.97;5016286;28;51334;-50
2023/02/26 10:56:00;;;;;;;;;4.25;2.50;;;;;-147.17;100.00;43796.13;5016659;28;52734;-50
2023/02/26 10:58:26;;;;;;;;;2.00;2.00;;;;;-147.17;100.00;43741.09;5015962;28;51311;-48
2023/02/26 11:00:54;;;;;;;;;2.00;2.00;;;;;-147.17;100.00;42458.00;4983437;28;52282;-48
2023/02/26 11:03:34;;;;;;;;;0.25;0.25;;;;;-147.17;100.00;43564.25;5016351;28;51347;-50
2023/02/26 11:06:02;;;;;;;;;2.75;2.25;;;;;-147.17;100.00;43375.59;5018489;28;52754;-51
2023/02/26 11:08:42;;;;;;;;;2.00;2.00;;;;;-147.17;100.00;42788.06;5016684;28;51244;-51
2023/02/26 11:11:08;;;;;;;;;1.33;1.33;;;;;-147.17;100.00;43145.69;5015248;28;51951;-50
2023/02/26 11:13:38;;;;;;;;;1.33;1.33;;;;;-147.17;100.00;45358.84;5005558;28;52855;-52
2023/02/26 11:16:10;;;;;;;;;1.00;1.00;;;;;-147.17;100.00;45813.03;5016934;28;51223;-52
2023/02/26 11:18:40;;;;;;;;;1.67;1.67;;;;;-147.17;100.00;45999.84;5016617;28;51170;-52